Time,TemperatureF,DewpointF,PressureIn,WindDirection,WindDirectionDegrees,WindSpeedMPH,WindSpeedGustMPH,Humidity,HourlyPrecipIn,Conditions,Clouds,dailyrainin,SoftwareType,DateUTC
2013-04-22 00:08:00,33.8,30.0,30.29,SSE,168,8.0,-999.0,84,-99.99,,,0.00,weatherlink.com 1.10,2013-04-22 04:08:00,
2013-04-22 00:23:00,33.9,30.0,30.29,South,187,8.0,-999.0,84,-99.99,,,0.00,weatherlink.com 1.10,2013-04-22 04:23:00,
2013-04-22 00:38:00,33.9,30.0,30.28,SSE,156,10.0,-999.0,84,-99.99,,,0.00,weatherlink.com 1.10,2013-04-22 04:38:00,
2013-04-22 00:54:00,34.1,30.0,30.27,SSE,166,9.0,-999.0,84,-99.99,,,0.00,weatherlink.com 1.10,2013-04-22 04:54:00,
2013-04-22 01:09:00,34.3,30.0,30.27,South,171,17.0,-999.0,83,-99.99,,,0.00,weatherlink.com 1.10,2013-04-22 05:09:00,
2013-04-22 01:24:00,34.5,30.0,30.27,SSW,193,7.0,-999.0,82,-99.99,,,0.00,weatherlink.com 1.10,2013-04-22 05:24:00,
2013-04-22 01:39:00,34.8,30.0,30.26,SSE,149,13.0,-999.0,82,-99.99,,,0.00,weatherlink.com 1.10,2013-04-22 05:39:00,
2013-04-22 01:54:00,35.3,30.0,30.26,SSE,161,13.0,-999.0,80,-99.99,,,0.00,weatherlink.com 1.10,2013-04-22 05:54:00,
2013-04-22 02:09:00,35.8,30.0,30.27,South,175,6.0,-999.0,79,-99.99,,,0.00,weatherlink.com 1.10,2013-04-22 06:09:00,
2013-04-22 02:24:00,36.1,30.0,30.26,South,182,6.0,-999.0,78,-99.99,,,0.00,weatherlink.com 1.10,2013-04-22 06:24:00,
2013-04-22 02:39:00,36.3,30.0,30.25,South,173,8.0,-999.0,78,-99.99,,,0.00,weatherlink.com 1.10,2013-04-22 06:39:00,
2013-04-22 02:54:00,36.5,30.0,30.26,SSW,194,5.0,-999.0,78,-99.99,,,0.00,weatherlink.com 1.10,2013-04-22 06:54:00,
2013-04-22 03:09:00,36.7,31.0,30.26,SSW,192,4.0,-999.0,79,-99.99,,,0.00,weatherlink.com 1.10,2013-04-22 07:09:00,
2013-04-22 03:25:00,36.7,31.0,30.26,South,186,4.0,-999.0,79,-99.99,,,0.00,weatherlink.com 1.10,2013-04-22 07:25:00,
2013-04-22 03:40:00,36.5,31.0,30.25,South,179,8.0,-999.0,81,-99.99,,,0.00,weatherlink.com 1.10,2013-04-22 07:40:00,
2013-04-22 03:55:00,36.0,32.0,30.24,SSE,165,9.0,-999.0,85,-99.99,,,0.03,weatherlink.com 1.10,2013-04-22 07:55:00,
2013-04-22 04:10:00,35.6,32.0,30.23,SSE,159,7.0,-999.0,88,-99.99,,,0.07,weatherlink.com 1.10,2013-04-22 08:10:00,
2013-04-22 04:25:00,35.5,33.0,30.22,South,169,14.0,-999.0,90,-99.99,,,0.10,weatherlink.com 1.10,2013-04-22 08:25:00,
2013-04-22 04:40:00,35.5,33.0,30.23,South,173,13.0,-999.0,91,-99.99,,,0.12,weatherlink.com 1.10,2013-04-22 08:40:00,
2013-04-22 04:55:00,35.5,33.0,30.22,SSE,167,13.0,-999.0,92,-99.99,,,0.14,weatherlink.com 1.10,2013-04-22 08:55:00,
2013-04-22 05:10:00,35.7,34.0,30.21,South,190,5.0,-999.0,93,-99.99,,,0.16,weatherlink.com 1.10,2013-04-22 09:10:00,
2013-04-22 05:25:00,35.9,34.0,30.22,SSW,193,6.0,-999.0,93,-99.99,,,0.18,weatherlink.com 1.10,2013-04-22 09:25:00,
2013-04-22 05:40:00,36.1,34.0,30.22,SSW,212,11.0,-999.0,93,-99.99,,,0.20,weatherlink.com 1.10,2013-04-22 09:40:00,
2013-04-22 05:55:00,36.2,34.0,30.22,South,184,6.0,-999.0,93,-99.99,,,0.20,weatherlink.com 1.10,2013-04-22 09:55:00,
2013-04-22 06:10:00,36.2,34.0,30.22,South,169,9.0,-999.0,93,-99.99,,,0.20,weatherlink.com 1.10,2013-04-22 10:10:00,
2013-04-22 06:25:00,36.1,34.0,30.22,South,169,11.0,-999.0,93,-99.99,,,0.21,weatherlink.com 1.10,2013-04-22 10:25:00,
2013-04-22 06:41:00,36.2,34.0,30.22,South,172,6.0,-999.0,93,-99.99,,,0.21,weatherlink.com 1.10,2013-04-22 10:41:00,
2013-04-22 06:56:00,36.2,34.0,30.22,SSE,167,11.0,-999.0,93,-99.99,,,0.21,weatherlink.com 1.10,2013-04-22 10:56:00,
2013-04-22 07:11:00,36.2,34.0,30.23,SSW,201,8.0,-999.0,93,-99.99,,,0.21,weatherlink.com 1.10,2013-04-22 11:11:00,
2013-04-22 07:26:00,36.0,34.0,30.23,South,172,6.0,-999.0,93,-99.99,,,0.21,weatherlink.com 1.10,2013-04-22 11:26:00,
2013-04-22 07:41:00,36.1,35.0,30.24,SSW,192,4.0,-999.0,94,-99.99,,,0.21,weatherlink.com 1.10,2013-04-22 11:41:00,
2013-04-22 07:56:00,36.0,35.0,30.24,South,172,7.0,-999.0,94,-99.99,,,0.21,weatherlink.com 1.10,2013-04-22 11:56:00,
2013-04-22 08:11:00,36.0,35.0,30.24,SSW,196,6.0,-999.0,94,-99.99,,,0.21,weatherlink.com 1.10,2013-04-22 12:11:00,
2013-04-22 08:26:00,36.0,35.0,30.24,South,173,6.0,-999.0,94,-99.99,,,0.21,weatherlink.com 1.10,2013-04-22 12:26:00,
2013-04-22 08:41:00,36.2,35.0,30.24,SSW,205,4.0,-999.0,94,-99.99,,,0.21,weatherlink.com 1.10,2013-04-22 12:41:00,
2013-04-22 08:56:00,36.5,35.0,30.24,SSW,198,7.0,-999.0,94,-99.99,,,0.21,weatherlink.com 1.10,2013-04-22 12:56:00,
2013-04-22 09:11:00,36.6,35.0,30.25,SSW,192,9.0,-999.0,94,-99.99,,,0.21,weatherlink.com 1.10,2013-04-22 13:11:00,
2013-04-22 09:26:00,36.6,35.0,30.24,South,175,1.0,-999.0,94,-99.99,,,0.21,weatherlink.com 1.10,2013-04-22 13:26:00,
2013-04-22 09:41:00,36.7,35.0,30.25,South,186,6.0,-999.0,94,-99.99,,,0.21,weatherlink.com 1.10,2013-04-22 13:41:00,
2013-04-22 09:57:00,36.8,35.0,30.25,SSE,162,5.0,-999.0,94,-99.99,,,0.21,weatherlink.com 1.10,2013-04-22 13:57:00,
2013-04-22 10:12:00,37.1,36.0,30.25,SSE,167,7.0,-999.0,94,-99.99,,,0.21,weatherlink.com 1.10,2013-04-22 14:12:00,
2013-04-22 10:27:00,37.3,36.0,30.24,South,169,7.0,-999.0,94,-99.99,,,0.21,weatherlink.com 1.10,2013-04-22 14:27:00,
2013-04-22 10:42:00,37.3,36.0,30.25,SSE,166,5.0,-999.0,94,-99.99,,,0.21,weatherlink.com 1.10,2013-04-22 14:42:00,
2013-04-22 10:57:00,37.5,36.0,30.25,SSW,203,2.0,-999.0,94,-99.99,,,0.21,weatherlink.com 1.10,2013-04-22 14:57:00,
2013-04-22 11:12:00,37.9,36.0,30.25,SSW,194,5.0,-999.0,93,-99.99,,,0.21,weatherlink.com 1.10,2013-04-22 15:12:00,
2013-04-22 11:27:00,38.2,36.0,30.25,SSW,194,0.0,-999.0,93,-99.99,,,0.21,weatherlink.com 1.10,2013-04-22 15:27:00,
2013-04-22 11:42:00,38.6,37.0,30.26,South,190,4.0,-999.0,92,-99.99,,,0.21,weatherlink.com 1.10,2013-04-22 15:42:00,
2013-04-22 11:57:00,38.7,37.0,30.26,SSW,192,0.0,-999.0,92,-99.99,,,0.21,weatherlink.com 1.10,2013-04-22 15:57:00,
2013-04-22 12:12:00,38.9,37.0,30.26,SSW,194,5.0,-999.0,91,-99.99,,,0.21,weatherlink.com 1.10,2013-04-22 16:12:00,
2013-04-22 12:27:00,38.9,37.0,30.27,SSW,193,1.0,-999.0,91,-99.99,,,0.21,weatherlink.com 1.10,2013-04-22 16:27:00,
2013-04-22 12:42:00,38.5,36.0,30.26,South,190,0.0,-999.0,91,-99.99,,,0.21,weatherlink.com 1.10,2013-04-22 16:42:00,
2013-04-22 12:58:00,38.3,36.0,30.25,South,171,1.0,-999.0,91,-99.99,,,0.21,weatherlink.com 1.10,2013-04-22 16:58:00,
2013-04-22 13:13:00,38.1,36.0,30.25,South,180,1.0,-999.0,92,-99.99,,,0.21,weatherlink.com 1.10,2013-04-22 17:13:00,
2013-04-22 13:28:00,38.0,36.0,30.25,SSE,167,4.0,-999.0,92,-99.99,,,0.21,weatherlink.com 1.10,2013-04-22 17:28:00,
2013-04-22 13:43:00,37.7,36.0,30.25,South,188,0.0,-999.0,93,-99.99,,,0.21,weatherlink.com 1.10,2013-04-22 17:43:00,
2013-04-22 13:58:00,37.5,36.0,30.25,South,181,0.0,-999.0,93,-99.99,,,0.21,weatherlink.com 1.10,2013-04-22 17:58:00,
2013-04-22 14:13:00,37.4,36.0,30.24,SSE,167,0.0,-999.0,94,-99.99,,,0.22,weatherlink.com 1.10,2013-04-22 18:13:00,
2013-04-22 14:28:00,37.7,36.0,30.24,South,171,4.0,-999.0,95,-99.99,,,0.22,weatherlink.com 1.10,2013-04-22 18:28:00,
2013-04-22 14:43:00,37.7,36.0,30.25,South,190,0.0,-999.0,95,-99.99,,,0.22,weatherlink.com 1.10,2013-04-22 18:43:00,
2013-04-22 14:58:00,37.6,36.0,30.25,South,176,0.0,-999.0,95,-99.99,,,0.22,weatherlink.com 1.10,2013-04-22 18:58:00,
2013-04-22 15:13:00,37.6,36.0,30.25,South,176,0.0,-999.0,95,-99.99,,,0.23,weatherlink.com 1.10,2013-04-22 19:13:00,
2013-04-22 15:28:00,37.5,37.0,30.24,South,176,0.0,-999.0,96,-99.99,,,0.24,weatherlink.com 1.10,2013-04-22 19:28:00,
2013-04-22 15:43:00,37.5,37.0,30.24,South,176,0.0,-999.0,96,-99.99,,,0.24,weatherlink.com 1.10,2013-04-22 19:43:00,
2013-04-22 15:58:00,36.9,36.0,30.25,North,5,2.0,-999.0,95,-99.99,,,0.26,weatherlink.com 1.10,2013-04-22 19:58:00,
2013-04-22 16:13:00,36.3,35.0,30.25,North,355,4.0,-999.0,95,-99.99,,,0.30,weatherlink.com 1.10,2013-04-22 20:13:00,
2013-04-22 16:29:00,35.9,34.0,30.24,NNW,348,4.0,-999.0,94,-99.99,,,0.32,weatherlink.com 1.10,2013-04-22 20:29:00,
2013-04-22 16:44:00,35.8,35.0,30.24,North,360,0.0,-999.0,95,-99.99,,,0.35,weatherlink.com 1.10,2013-04-22 20:44:00,
2013-04-22 16:59:00,35.8,35.0,30.23,NNE,22,1.0,-999.0,95,-99.99,,,0.37,weatherlink.com 1.10,2013-04-22 20:59:00,
2013-04-22 17:14:00,35.8,35.0,30.23,NNE,12,0.0,-999.0,95,-99.99,,,0.39,weatherlink.com 1.10,2013-04-22 21:14:00,
2013-04-22 17:29:00,35.6,34.0,30.22,NNE,22,0.0,-999.0,95,-99.99,,,0.40,weatherlink.com 1.10,2013-04-22 21:29:00,
2013-04-22 17:44:00,35.3,34.0,30.23,NNE,22,0.0,-999.0,96,-99.99,,,0.42,weatherlink.com 1.10,2013-04-22 21:44:00,
2013-04-22 17:59:00,35.3,34.0,30.22,NNE,22,0.0,-999.0,96,-99.99,,,0.44,weatherlink.com 1.10,2013-04-22 21:59:00,
2013-04-22 18:14:00,35.4,34.0,30.22,NNE,20,0.0,-999.0,96,-99.99,,,0.44,weatherlink.com 1.10,2013-04-22 22:14:00,
2013-04-22 18:29:00,35.4,34.0,30.22,North,5,0.0,-999.0,96,-99.99,,,0.45,weatherlink.com 1.10,2013-04-22 22:29:00,
2013-04-22 18:44:00,35.2,34.0,30.21,NNW,347,0.0,-999.0,96,-99.99,,,0.46,weatherlink.com 1.10,2013-04-22 22:44:00,
2013-04-22 18:59:00,35.0,34.0,30.21,North,360,0.0,-999.0,97,-99.99,,,0.48,weatherlink.com 1.10,2013-04-22 22:59:00,
2013-04-22 19:14:00,34.9,34.0,30.20,North,351,3.0,-999.0,97,-99.99,,,0.49,weatherlink.com 1.10,2013-04-22 23:14:00,
2013-04-22 19:29:00,34.8,34.0,30.20,North,360,4.0,-999.0,97,-99.99,,,0.50,weatherlink.com 1.10,2013-04-22 23:29:00,
2013-04-22 19:45:00,34.6,34.0,30.20,North,355,8.0,-999.0,97,-99.99,,,0.52,weatherlink.com 1.10,2013-04-22 23:45:00,
2013-04-22 20:00:00,34.5,34.0,30.20,North,355,1.0,-999.0,97,-99.99,,,0.52,weatherlink.com 1.10,2013-04-23 00:00:00,
2013-04-22 20:15:00,34.4,34.0,30.20,NNE,30,6.0,-999.0,97,-99.99,,,0.53,weatherlink.com 1.10,2013-04-23 00:15:00,
2013-04-22 20:30:00,34.4,34.0,30.19,NNE,16,2.0,-999.0,97,-99.99,,,0.53,weatherlink.com 1.10,2013-04-23 00:30:00,
2013-04-22 20:45:00,34.4,34.0,30.19,North,10,0.0,-999.0,97,-99.99,,,0.54,weatherlink.com 1.10,2013-04-23 00:45:00,
2013-04-22 21:00:00,34.4,34.0,30.20,NNE,13,4.0,-999.0,98,-99.99,,,0.54,weatherlink.com 1.10,2013-04-23 01:00:00,
2013-04-22 21:15:00,34.4,34.0,30.20,NNE,22,0.0,-999.0,98,-99.99,,,0.55,weatherlink.com 1.10,2013-04-23 01:15:00,
2013-04-22 21:30:00,34.4,34.0,30.20,NNE,14,1.0,-999.0,98,-99.99,,,0.55,weatherlink.com 1.10,2013-04-23 01:30:00,
2013-04-22 21:45:00,34.3,34.0,30.18,North,360,2.0,-999.0,98,-99.99,,,0.55,weatherlink.com 1.10,2013-04-23 01:45:00,
2013-04-22 22:00:00,34.2,34.0,30.19,North,355,3.0,-999.0,98,-99.99,,,0.55,weatherlink.com 1.10,2013-04-23 02:00:00,
2013-04-22 22:15:00,34.1,34.0,30.18,North,360,3.0,-999.0,98,-99.99,,,0.55,weatherlink.com 1.10,2013-04-23 02:15:00,
2013-04-22 22:30:00,34.1,34.0,30.18,North,355,2.0,-999.0,98,-99.99,,,0.56,weatherlink.com 1.10,2013-04-23 02:30:00,
2013-04-22 22:46:00,34.0,34.0,30.18,North,9,3.0,-999.0,98,-99.99,,,0.56,weatherlink.com 1.10,2013-04-23 02:46:00,
2013-04-22 23:01:00,33.9,33.0,30.17,NE,49,1.0,-999.0,98,-99.99,,,0.56,weatherlink.com 1.10,2013-04-23 03:01:00,
2013-04-22 23:16:00,33.9,33.0,30.18,NNW,328,3.0,-999.0,98,-99.99,,,0.56,weatherlink.com 1.10,2013-04-23 03:16:00,
2013-04-22 23:31:00,33.8,33.0,30.17,NNW,340,3.0,-999.0,98,-99.99,,,0.56,weatherlink.com 1.10,2013-04-23 03:31:00,
2013-04-22 23:46:00,33.7,33.0,30.18,WNW,286,4.0,-999.0,98,-99.99,,,0.56,weatherlink.com 1.10,2013-04-23 03:46:00,